Time;durP1;ratioP1;P1;durP2;ratioP2;P2;SDS_P1;SDS_P2;PMS_P1;PMS_P2;Temp;Humidity;BMP_temperature;BMP_pressure;BME280_temperature;BME280_humidity;BME280_pressure;Samples;Min_cycle;Max_cycle;Signal;HPM_P1;HPM_P2
2021/04/02 00:01:08;;;;;;;3.95;1.08;;;7.40;75.00;;;;;;5046152;28;20036;-83
2021/04/02 00:03:36;;;;;;;6.97;1.67;;;7.50;75.20;;;;;;5047312;28;20081;-83
2021/04/02 00:06:04;;;;;;;2.33;1.10;;;7.40;75.20;;;;;;5031294;28;20033;-83
2021/04/02 00:08:30;;;;;;;3.28;1.30;;;7.40;75.50;;;;;;5031561;28;20017;-82
2021/04/02 00:10:58;;;;;;;6.55;1.45;;;7.30;75.60;;;;;;5032735;28;20029;-84
2021/04/02 00:13:27;;;;;;;3.25;1.23;;;7.20;76.00;;;;;;5031721;28;20024;-83
2021/04/02 00:15:54;;;;;;;4.38;1.55;;;7.20;76.30;;;;;;5045454;28;20028;-83
2021/04/02 00:18:21;;;;;;;6.07;1.70;;;7.10;76.20;;;;;;5030190;28;20018;-83
2021/04/02 00:20:47;;;;;;;5.40;1.83;;;7.10;76.70;;;;;;5032434;28;20033;-83
2021/04/02 00:23:13;;;;;;;2.60;2.00;;;7.00;76.90;;;;;;5030729;28;20045;-83
2021/04/02 00:25:39;;;;;;;6.72;2.25;;;7.00;77.20;;;;;;5032613;28;20104;-83
2021/04/02 00:28:06;;;;;;;15.30;4.28;;;7.00;77.30;;;;;;5032373;28;20132;-83
2021/04/02 00:30:39;;;;;;;29.73;7.47;;;7.00;77.40;;;;;;5032569;28;20024;-83
2021/04/02 00:33:05;;;;;;;46.25;14.10;;;7.00;77.40;;;;;;5031094;28;20029;-83
2021/04/02 00:35:31;;;;;;;45.47;15.10;;;7.00;77.80;;;;;;5030428;28;20029;-83
2021/04/02 00:37:57;;;;;;;41.05;13.27;;;6.90;78.00;;;;;;5032017;28;20022;-83
2021/04/02 00:40:31;;;;;;;32.28;12.27;;;6.90;78.20;;;;;;5044659;28;20041;-83
2021/04/02 00:42:57;;;;;;;25.77;10.32;;;6.90;78.60;;;;;;5030170;28;20029;-83
2021/04/02 00:45:23;;;;;;;22.40;7.47;;;6.80;78.70;;;;;;5045287;28;20083;-83
2021/04/02 00:47:53;;;;;;;16.15;6.70;;;6.80;79.10;;;;;;5031472;28;20489;-83
2021/04/02 00:50:42;;;;;;;15.23;4.68;;;6.90;79.40;;;;;;5030364;28;20026;-83
2021/04/02 00:53:08;;;;;;;8.90;3.00;;;6.90;79.60;;;;;;5029658;28;20377;-83
2021/04/02 00:55:36;;;;;;;9.75;3.15;;;6.80;79.60;;;;;;5044034;28;20036;-83
2021/04/02 00:58:03;;;;;;;7.40;2.15;;;6.80;79.90;;;;;;5032113;28;20029;-83
2021/04/02 01:00:31;;;;;;;14.07;2.10;;;6.80;80.80;;;;;;5030832;28;20108;-83
2021/04/02 01:02:57;;;;;;;4.43;1.63;;;6.70;81.10;;;;;;5032041;28;20104;-83
2021/04/02 01:05:26;;;;;;;6.15;1.90;;;6.70;81.20;;;;;;5046754;28;20091;-83
2021/04/02 01:07:55;;;;;;;7.00;2.60;;;6.70;81.20;;;;;;5046599;28;20496;-83
2021/04/02 01:10:22;;;;;;;5.88;2.15;;;6.60;81.70;;;;;;5032084;28;20496;-83
2021/04/02 01:12:53;;;;;;;7.53;2.28;;;6.60;82.10;;;;;;5030503;28;20029;-83
2021/04/02 01:15:24;;;;;;;5.47;2.20;;;6.60;82.60;;;;;;5028872;28;20025;-84
2021/04/02 01:17:51;;;;;;;4.88;1.73;;;6.50;83.00;;;;;;5031857;28;20024;-83
2021/04/02 01:20:20;;;;;;;5.45;1.88;;;6.50;83.10;;;;;;5031885;28;20151;-84
2021/04/02 01:22:47;;;;;;;6.15;2.70;;;6.50;83.40;;;;;;5030274;28;20052;-83
2021/04/02 01:25:27;;;;;;;6.10;2.40;;;6.50;83.40;;;;;;5031789;28;20474;-83
2021/04/02 01:28:06;;;;;;;7.20;2.80;;;6.50;83.90;;;;;;5031773;28;20546;-83
2021/04/02 01:30:31;;;;;;;4.95;1.65;;;6.40;84.20;;;;;;5025938;28;20025;-83
2021/04/02 01:33:00;;;;;;;7.30;2.00;;;6.40;84.20;;;;;;5044764;28;20029;-83
2021/04/02 01:35:31;;;;;;;4.97;2.45;;;6.40;84.50;;;;;;5031345;28;20033;-83
2021/04/02 01:38:02;;;;;;;5.43;2.55;;;6.30;84.70;;;;;;5044531;28;20108;-83
2021/04/02 01:40:31;;;;;;;5.82;2.63;;;6.30;85.20;;;;;;5030127;28;20038;-83
2021/04/02 01:43:01;;;;;;;6.68;2.55;;;6.30;85.50;;;;;;5030502;28;20022;-83
2021/04/02 01:45:27;;;;;;;6.63;2.90;;;6.30;85.80;;;;;;5030191;28;20025;-83
2021/04/02 01:47:54;;;;;;;6.43;2.58;;;6.30;85.80;;;;;;5031551;28;20017;-84
2021/04/02 01:50:21;;;;;;;7.72;2.63;;;6.30;86.20;;;;;;5031606;28;20117;-83
2021/04/02 01:52:47;;;;;;;9.90;3.70;;;6.20;86.20;;;;;;5029699;28;20024;-83
2021/04/02 01:55:14;;;;;;;7.93;3.20;;;6.20;87.00;;;;;;5031484;28;20033;-83
2021/04/02 01:57:42;;;;;;;8.43;3.47;;;6.20;87.20;;;;;;5030170;28;20021;-83
2021/04/02 02:00:17;;;;;;;7.25;2.63;;;6.10;87.90;;;;;;5030238;28;20473;-83
2021/04/02 02:02:43;;;;;;;7.03;2.05;;;6.10;88.20;;;;;;5045211;28;20029;-83
2021/04/02 02:05:11;;;;;;;7.10;2.30;;;6.10;88.30;;;;;;5033409;28;20017;-83
2021/04/02 02:07:40;;;;;;;7.57;2.35;;;6.10;88.10;;;;;;5046754;28;20017;-83
2021/04/02 02:10:07;;;;;;;4.10;2.05;;;6.10;88.00;;;;;;5047682;28;20488;-83
2021/04/02 02:12:35;;;;;;;6.15;2.30;;;6.10;87.80;;;;;;5034962;28;20473;-83
2021/04/02 02:15:03;;;;;;;6.22;2.50;;;6.10;88.00;;;;;;5034846;28;20503;-84
2021/04/02 02:17:30;;;;;;;5.90;1.95;;;6.10;88.00;;;;;;5033538;28;20100;-83
2021/04/02 02:20:03;;;;;;;4.32;1.20;;;6.10;87.80;;;;;;5034959;28;20048;-83
2021/04/02 02:22:29;;;;;;;4.35;1.85;;;6.10;87.50;;;;;;5033583;28;20014;-83
2021/04/02 02:24:55;;;;;;;3.97;1.10;;;6.00;87.70;;;;;;5032729;28;20396;-83
2021/04/02 02:27:20;;;;;;;4.03;1.20;;;6.00;87.70;;;;;;5022578;28;20026;-83
2021/04/02 02:29:46;;;;;;;4.35;1.33;;;6.00;87.70;;;;;;5033414;28;20498;-83
2021/04/02 02:32:12;;;;;;;4.75;2.58;;;6.00;87.80;;;;;;5033351;28;20028;-83
2021/04/02 02:34:37;;;;;;;6.55;1.75;;;5.90;88.20;;;;;;5034718;28;20026;-83
2021/04/02 02:37:04;;;;;;;3.72;1.30;;;6.00;88.60;;;;;;5033341;28;20025;-83
2021/04/02 02:39:30;;;;;;;3.28;1.10;;;6.00;88.60;;;;;;5030186;28;20044;-83
2021/04/02 02:41:56;;;;;;;8.55;2.42;;;6.00;88.50;;;;;;5033405;28;20099;-83
2021/04/02 02:44:22;;;;;;;2.88;1.23;;;5.90;88.60;;;;;;5033311;28;20027;-83
2021/04/02 02:46:47;;;;;;;3.70;1.55;;;6.00;88.60;;;;;;5048413;28;20112;-83
2021/04/02 02:49:16;;;;;;;4.53;1.40;;;6.00;88.60;;;;;;5048058;28;20072;-83
2021/04/02 02:51:43;;;;;;;4.32;1.45;;;5.90;88.60;;;;;;5034483;28;20017;-83
2021/04/02 02:54:15;;;;;;;6.63;1.13;;;5.90;88.90;;;;;;5032780;28;20105;-83
2021/04/02 02:56:44;;;;;;;2.67;1.25;;;5.90;89.00;;;;;;5032885;28;20393;-83
2021/04/02 02:59:15;;;;;;;2.95;1.00;;;5.80;88.80;;;;;;5034133;28;20028;-83
2021/04/02 03:01:42;;;;;;;4.90;1.02;;;5.70;88.90;;;;;;5033018;28;20041;-83
2021/04/02 03:04:10;;;;;;;4.15;1.15;;;5.80;89.00;;;;;;5031663;28;20022;-83
2021/04/02 03:06:40;;;;;;;4.57;1.10;;;5.80;89.20;;;;;;5032730;28;20125;-83
2021/04/02 03:09:07;;;;;;;;;;;5.70;89.20;;;;;;5033284;28;20037;-82
2021/04/02 03:11:34;;;;;;;4.60;1.27;;;5.70;89.10;;;;;;5046697;28;19905;-83
2021/04/02 03:14:00;;;;;;;5.03;1.42;;;5.70;89.50;;;;;;5032708;28;20366;-83
2021/04/02 03:16:27;;;;;;;5.88;1.48;;;5.60;90.00;;;;;;5033403;28;20163;-83
2021/04/02 03:18:56;;;;;;;8.02;2.13;;;5.60;90.10;;;;;;5015410;28;20022;-83
2021/04/02 03:21:22;;;;;;;6.43;1.27;;;5.50;90.30;;;;;;5033785;28;20033;-83
2021/04/02 03:23:50;;;;;;;3.83;1.30;;;5.50;90.40;;;;;;5033574;28;20201;-83
2021/04/02 03:26:17;;;;;;;2.65;1.05;;;5.50;90.70;;;;;;5048528;28;20029;-83
2021/04/02 03:28:44;;;;;;;4.32;1.50;;;5.50;90.50;;;;;;5032504;28;20108;-83
2021/04/02 03:31:11;;;;;;;6.30;1.35;;;5.50;90.60;;;;;;5033526;28;20052;-83
2021/04/02 03:33:43;;;;;;;5.80;1.15;;;5.50;90.90;;;;;;5030300;28;20017;-83
2021/04/02 03:36:13;;;;;;;4.35;1.38;;;5.50;91.00;;;;;;5033373;28;20036;-82
2021/04/02 03:38:42;;;;;;;5.00;1.48;;;5.50;91.10;;;;;;5024260;28;20505;-83
2021/04/02 03:41:11;;;;;;;3.97;1.45;;;5.50;91.20;;;;;;5031686;28;20055;-83
2021/04/02 03:43:39;;;;;;;4.43;1.50;;;5.50;91.20;;;;;;5032063;28;20100;-83
2021/04/02 03:46:07;;;;;;;4.35;1.35;;;5.50;91.20;;;;;;5016957;28;20030;-83
2021/04/02 03:48:36;;;;;;;4.05;1.40;;;5.50;91.30;;;;;;5031108;28;20021;-83
2021/04/02 03:51:04;;;;;;;4.82;1.75;;;5.50;91.20;;;;;;5032121;28;20489;-83
2021/04/02 03:53:36;;;;;;;4.25;1.73;;;5.50;91.60;;;;;;5033145;28;20033;-83
2021/04/02 03:56:05;;;;;;;6.53;2.00;;;5.50;91.60;;;;;;5031716;28;20076;-83
2021/04/02 03:58:32;;;;;;;5.95;1.40;;;5.50;91.60;;;;;;5030563;28;20014;-83
2021/04/02 04:01:22;;;;;;;5.07;1.23;;;5.40;91.60;;;;;;5031703;28;20032;-83
2021/04/02 04:03:50;;;;;;;2.20;0.95;;;5.40;91.70;;;;;;5031767;28;20021;-83
2021/04/02 04:06:18;;;;;;;4.32;2.05;;;5.40;91.80;;;;;;5032964;28;20025;-83
2021/04/02 04:08:45;;;;;;;4.75;1.52;;;5.40;91.90;;;;;;5033186;28;20028;-83
2021/04/02 04:11:13;;;;;;;3.75;1.55;;;5.40;91.80;;;;;;5032667;28;20506;-84
2021/04/02 04:13:41;;;;;;;5.15;1.30;;;5.50;91.80;;;;;;5032900;28;20105;-81
2021/04/02 04:16:08;;;;;;;5.55;1.65;;;5.50;91.80;;;;;;5032535;28;20081;-83
2021/04/02 04:18:35;;;;;;;5.70;1.83;;;5.50;92.00;;;;;;5032864;28;20021;-83
2021/04/02 04:21:07;;;;;;;4.28;1.63;;;5.40;91.90;;;;;;5032693;28;20021;-83
2021/04/02 04:23:36;;;;;;;7.88;2.00;;;5.50;91.90;;;;;;5031398;28;20013;-83
2021/04/02 04:26:02;;;;;;;5.50;2.22;;;5.50;92.10;;;;;;5032401;28;20022;-83
2021/04/02 04:28:28;;;;;;;3.17;1.70;;;5.40;92.20;;;;;;5045098;28;20028;-83
2021/04/02 04:30:58;;;;;;;7.72;1.67;;;5.40;92.20;;;;;;5032697;28;20021;-83
2021/04/02 04:33:24;;;;;;;;;;;5.40;92.30;;;;;;5031961;28;20014;-83
2021/04/02 04:35:51;;;;;;;4.85;1.50;;;5.20;92.30;;;;;;5030698;28;19909;-83
2021/04/02 04:38:18;;;;;;;6.88;1.90;;;5.10;92.70;;;;;;5030512;28;20492;-83
2021/04/02 04:40:44;;;;;;;4.70;2.03;;;5.10;92.70;;;;;;5031104;28;20049;-83
2021/04/02 04:43:14;;;;;;;5.88;1.80;;;5.20;92.90;;;;;;5044873;28;20088;-83
2021/04/02 04:45:40;;;;;;;7.93;1.85;;;5.20;92.80;;;;;;5031461;28;20405;-83
2021/04/02 04:48:07;;;;;;;7.05;1.73;;;5.20;92.80;;;;;;5031603;28;20481;-83
2021/04/02 04:50:33;;;;;;;7.18;2.00;;;5.10;92.80;;;;;;5030392;28;20025;-83
2021/04/02 04:53:09;;;;;;;9.00;1.90;;;5.10;92.80;;;;;;5031002;28;20493;-83
2021/04/02 04:55:37;;;;;;;5.60;1.73;;;5.10;92.90;;;;;;5032003;28;20491;-83
2021/04/02 04:58:04;;;;;;;3.60;1.63;;;5.00;92.80;;;;;;5031954;28;20024;-83
2021/04/02 05:00:31;;;;;;;6.28;1.75;;;5.00;92.90;;;;;;5045460;28;20059;-83
2021/04/02 05:02:58;;;;;;;3.05;1.38;;;5.00;92.80;;;;;;5030866;28;20033;-84
2021/04/02 05:05:29;;;;;;;4.93;1.58;;;5.00;92.80;;;;;;5046547;28;20112;-84
2021/04/02 05:07:57;;;;;;;4.13;1.30;;;4.90;92.70;;;;;;5031969;28;20028;-84
2021/04/02 05:10:23;;;;;;;5.38;2.03;;;4.90;92.80;;;;;;5030686;28;20022;-84
2021/04/02 05:12:50;;;;;;;5.13;1.65;;;4.90;93.00;;;;;;5029510;28;20083;-84
2021/04/02 05:15:19;;;;;;;6.25;1.63;;;4.90;93.00;;;;;;5030590;28;20539;-85
2021/04/02 05:17:45;;;;;;;7.80;1.90;;;4.80;93.20;;;;;;5045426;28;20013;-84
2021/04/02 05:20:11;;;;;;;4.75;2.40;;;4.80;93.30;;;;;;5030675;28;20532;-84
2021/04/02 05:22:36;;;;;;;5.00;1.85;;;4.80;93.30;;;;;;5031026;28;20108;-84
2021/04/02 05:25:04;;;;;;;4.35;1.50;;;4.80;93.40;;;;;;5046042;28;20504;-84
2021/04/02 05:27:29;;;;;;;12.70;2.50;;;4.80;93.30;;;;;;5031584;28;20077;-84
2021/04/02 05:29:55;;;;;;;5.32;1.90;;;4.80;93.60;;;;;;5024639;28;20489;-84
2021/04/02 05:32:21;;;;;;;6.20;1.95;;;4.80;93.70;;;;;;5030669;28;20485;-84
2021/04/02 05:34:46;;;;;;;4.68;1.80;;;4.80;93.70;;;;;;5046858;28;20370;-84
2021/04/02 05:37:12;;;;;;;3.55;1.77;;;4.80;93.70;;;;;;5024507;28;20108;-83
2021/04/02 05:39:38;;;;;;;4.82;1.70;;;4.80;93.70;;;;;;5032250;28;20496;-84
2021/04/02 05:42:06;;;;;;;5.30;1.85;;;4.90;93.80;;;;;;5023230;28;20444;-84
2021/04/02 05:44:36;;;;;;;4.22;1.70;;;4.90;93.80;;;;;;5015529;28;20030;-85
2021/04/02 05:47:05;;;;;;;5.72;1.50;;;4.90;93.70;;;;;;5015619;28;20041;-85
2021/04/02 05:49:31;;;;;;;4.90;1.80;;;4.90;93.80;;;;;;5032069;28;20033;-84
2021/04/02 05:51:58;;;;;;;5.50;1.88;;;4.90;93.90;;;;;;5015667;28;20500;-85
2021/04/02 05:54:33;;;;;;;3.45;1.52;;;4.90;93.80;;;;;;5015583;28;20025;-86
2021/04/02 05:56:59;;;;;;;7.40;2.20;;;4.90;93.90;;;;;;5027036;28;20026;-84
2021/04/02 05:59:25;;;;;;;6.60;1.70;;;4.90;94.00;;;;;;5035879;28;20036;-85
2021/04/02 06:01:51;;;;;;;2.97;1.38;;;4.90;94.00;;;;;;5035448;28;20473;-85
2021/04/02 06:04:17;;;;;;;6.25;1.90;;;4.90;94.00;;;;;;5035326;28;20021;-86
2021/04/02 06:06:43;;;;;;;6.72;2.17;;;4.90;93.90;;;;;;5035071;28;20021;-86
2021/04/02 06:09:09;;;;;;;5.97;1.55;;;5.00;93.90;;;;;;5036498;28;20037;-86
2021/04/02 06:11:36;;;;;;;5.10;1.40;;;4.90;94.00;;;;;;5034932;28;20029;-86
2021/04/02 06:14:02;;;;;;;3.90;1.60;;;5.00;94.30;;;;;;5034947;28;20446;-87
2021/04/02 06:16:28;;;;;;;3.60;1.70;;;4.90;94.00;;;;;;5046078;28;20112;-87
2021/04/02 06:19:04;;;;;;;6.10;1.63;;;5.00;94.00;;;;;;5020482;28;20168;-87
2021/04/02 06:21:29;;;;;;;4.47;1.40;;;5.10;93.90;;;;;;5015773;28;20057;-87
2021/04/02 06:23:55;;;;;;;7.78;2.20;;;5.10;93.80;;;;;;5016784;28;20493;-88
2021/04/02 06:26:20;;;;;;;8.50;2.22;;;5.10;94.00;;;;;;5025269;28;20437;-86
2021/04/02 06:28:46;;;;;;;9.07;2.45;;;5.10;94.10;;;;;;5035899;28;20041;-87
2021/04/02 06:31:14;;;;;;;5.65;1.63;;;5.10;94.20;;;;;;5035062;28;20030;-87
2021/04/02 06:33:42;;;;;;;5.57;1.73;;;5.20;94.30;;;;;;5035310;28;20025;-87
2021/04/02 06:36:27;;;;;;;4.85;1.42;;;5.30;94.10;;;;;;5034869;28;20025;-86
2021/04/02 06:38:57;;;;;;;7.57;1.30;;;5.30;94.10;;;;;;5035244;28;20025;-87
2021/04/02 06:41:26;;;;;;;7.75;1.85;;;5.40;94.10;;;;;;5034649;28;20044;-87
2021/04/02 06:43:56;;;;;;;3.00;1.60;;;5.30;94.20;;;;;;5034681;28;20021;-86
2021/04/02 06:46:26;;;;;;;7.40;2.05;;;5.40;94.20;;;;;;5033975;28;20099;-86
2021/04/02 06:48:52;;;;;;;;;;;5.40;94.20;;;;;;5033185;28;20032;-86
2021/04/02 06:51:20;;;;;;;4.68;1.77;;;5.30;94.30;;;;;;5033574;28;20349;-85
2021/04/02 06:53:47;;;;;;;5.30;1.83;;;5.30;94.60;;;;;;5035543;28;20295;-86
2021/04/02 06:56:14;;;;;;;10.55;2.38;;;5.30;94.50;;;;;;5037666;28;20421;-85
2021/04/02 06:58:41;;;;;;;9.35;2.15;;;5.40;94.90;;;;;;5054254;28;20029;-85
2021/04/02 07:01:08;;;;;;;5.28;1.60;;;5.50;94.80;;;;;;5070697;28;20025;-86
2021/04/02 07:03:35;;;;;;;5.80;1.48;;;5.50;94.70;;;;;;5054215;28;20111;-86
2021/04/02 07:06:02;;;;;;;9.82;2.25;;;5.60;94.60;;;;;;5054145;28;20025;-86
2021/04/02 07:08:29;;;;;;;6.85;1.83;;;5.70;94.70;;;;;;5054906;28;20029;-85
2021/04/02 07:10:56;;;;;;;7.53;1.58;;;5.70;94.70;;;;;;5055174;28;20488;-86
2021/04/02 07:13:25;;;;;;;5.82;1.30;;;5.70;94.60;;;;;;5070639;28;20036;-85
2021/04/02 07:15:52;;;;;;;6.20;1.48;;;5.80;94.70;;;;;;5044081;28;20022;-86
2021/04/02 07:18:18;;;;;;;10.63;1.63;;;5.80;94.60;;;;;;5033791;28;20033;-85
2021/04/02 07:20:45;;;;;;;4.95;1.20;;;5.90;94.50;;;;;;5033744;28;20029;-85
2021/04/02 07:23:12;;;;;;;7.20;1.50;;;5.90;94.40;;;;;;5032648;28;20033;-85
2021/04/02 07:25:37;;;;;;;8.25;1.52;;;6.10;94.40;;;;;;5029685;28;20129;-85
2021/04/02 07:28:06;;;;;;;6.90;1.40;;;6.10;94.40;;;;;;5047014;28;20064;-85
2021/04/02 07:30:32;;;;;;;4.15;1.20;;;6.20;94.40;;;;;;5037716;28;20029;-85
2021/04/02 07:33:01;;;;;;;5.30;1.30;;;6.20;94.20;;;;;;5053393;28;20021;-85
2021/04/02 07:35:26;;;;;;;8.65;1.30;;;6.40;94.30;;;;;;5039734;28;20025;-84
2021/04/02 07:37:54;;;;;;;5.93;1.63;;;6.50;94.30;;;;;;5033277;28;20076;-85
2021/04/02 07:40:23;;;;;;;7.68;1.70;;;6.50;94.10;;;;;;5034471;28;20072;-85
2021/04/02 07:42:51;;;;;;;4.68;1.33;;;6.60;94.30;;;;;;5033227;28;20108;-85
2021/04/02 07:45:24;;;;;;;10.45;2.58;;;6.60;93.90;;;;;;5032877;28;20558;-85
2021/04/02 07:47:52;;;;;;;5.35;1.50;;;6.70;93.90;;;;;;5032756;28;20029;-84
2021/04/02 07:50:36;;;;;;;6.15;1.73;;;6.80;93.80;;;;;;5032543;28;20476;-84
2021/04/02 07:53:02;;;;;;;9.05;1.42;;;6.90;93.60;;;;;;5031132;28;20061;-83
2021/04/02 07:55:28;;;;;;;6.68;1.33;;;6.90;93.50;;;;;;5029713;28;20485;-82
2021/04/02 07:58:02;;;;;;;8.90;1.55;;;7.00;93.20;;;;;;5033592;28;20018;-82
2021/04/02 08:00:35;;;;;;;8.13;1.40;;;7.00;92.90;;;;;;5030245;28;20048;-82
2021/04/02 08:03:16;;;;;;;9.13;2.28;;;7.00;92.90;;;;;;5032160;28;20024;-81
2021/04/02 08:05:54;;;;;;;6.72;1.40;;;7.10;92.90;;;;;;5029508;28;20433;-82
2021/04/02 08:08:19;;;;;;;5.07;1.05;;;7.10;92.70;;;;;;5030721;28;20111;-85
2021/04/02 08:11:14;;;;;;;8.32;1.38;;;7.30;92.60;;;;;;5049363;28;20025;-84
2021/04/02 08:13:48;;;;;;;7.70;1.25;;;7.40;92.30;;;;;;5049170;28;20086;-84
2021/04/02 08:16:33;;;;;;;5.90;1.92;;;7.50;92.10;;;;;;5020232;28;20033;-85
2021/04/02 08:19:17;;;;;;;7.65;1.20;;;7.50;91.80;;;;;;5012912;28;20068;-85
2021/04/02 08:21:54;;;;;;;7.78;1.75;;;7.50;91.90;;;;;;5017623;28;20045;-83
2021/04/02 08:24:29;;;;;;;8.15;1.58;;;7.50;91.70;;;;;;5032306;28;20531;-84
2021/04/02 08:26:56;;;;;;;5.60;1.80;;;7.60;91.40;;;;;;5033570;28;20112;-85
2021/04/02 08:29:25;;;;;;;7.65;2.05;;;7.60;91.20;;;;;;5032336;28;20025;-84
2021/04/02 08:31:55;;;;;;;3.80;1.20;;;7.60;91.00;;;;;;5033452;28;20026;-85
2021/04/02 08:34:25;;;;;;;6.28;1.48;;;7.70;90.90;;;;;;5032270;28;20026;-85
2021/04/02 08:36:51;;;;;;;;;;;7.80;90.70;;;;;;5033655;28;20495;-85
2021/04/02 08:39:21;;;;;;;4.32;1.40;;;7.90;90.80;;;;;;5048903;28;19905;-86
2021/04/02 08:41:47;;;;;;;5.57;1.00;;;8.10;90.40;;;;;;5032361;28;20050;-85
2021/04/02 08:44:12;;;;;;;5.95;1.88;;;8.20;89.70;;;;;;5033500;28;20029;-85
2021/04/02 08:46:45;;;;;;;6.32;1.50;;;8.30;89.00;;;;;;5032044;28;20025;-85
2021/04/02 08:49:13;;;;;;;6.95;1.48;;;8.50;88.10;;;;;;5032100;28;20041;-85
2021/04/02 08:51:39;;;;;;;3.42;1.00;;;8.60;87.80;;;;;;5033378;28;20484;-87
2021/04/02 08:54:12;;;;;;;3.10;0.98;;;8.70;87.00;;;;;;5033341;28;20026;-84
2021/04/02 08:56:38;;;;;;;6.82;1.65;;;8.60;84.80;;;;;;5031513;28;20037;-85
2021/04/02 08:59:08;;;;;;;4.78;1.00;;;8.60;84.70;;;;;;5026189;28;20033;-85
2021/04/02 09:01:37;;;;;;;5.00;2.17;;;8.50;84.60;;;;;;5032941;28;20025;-85
2021/04/02 09:04:06;;;;;;;3.55;1.10;;;8.60;84.70;;;;;;5018008;28;20026;-85
2021/04/02 09:06:32;;;;;;;3.55;0.88;;;8.70;84.60;;;;;;5030442;28;20025;-84
2021/04/02 09:08:57;;;;;;;3.80;1.30;;;8.80;84.60;;;;;;5031712;28;20030;-84
2021/04/02 09:11:23;;;;;;;10.05;1.25;;;9.10;84.00;;;;;;5031845;28;20116;-85
2021/04/02 09:13:52;;;;;;;6.55;1.60;;;9.50;83.60;;;;;;5033210;28;20021;-86
2021/04/02 09:16:20;;;;;;;5.35;1.52;;;9.90;82.10;;;;;;5023940;28;20032;-84
2021/04/02 09:18:53;;;;;;;3.72;1.20;;;10.30;80.80;;;;;;5032572;28;20283;-83
2021/04/02 09:21:19;;;;;;;6.32;1.10;;;10.30;79.20;;;;;;5032181;28;20060;-84
2021/04/02 09:23:50;;;;;;;7.35;1.10;;;10.20;78.60;;;;;;5031651;28;20527;-84
2021/04/02 09:26:16;;;;;;;4.65;0.85;;;10.10;78.00;;;;;;5031369;28;20056;-84
2021/04/02 09:28:42;;;;;;;4.70;1.05;;;9.90;78.20;;;;;;5031492;28;20021;-84
2021/04/02 09:31:22;;;;;;;7.25;1.10;;;9.80;78.00;;;;;;5032834;28;20419;-84
2021/04/02 09:33:56;;;;;;;4.35;1.00;;;9.80;77.70;;;;;;5031445;28;20021;-84
2021/04/02 09:36:24;;;;;;;5.68;1.15;;;9.80;78.20;;;;;;5031398;28;20036;-84
2021/04/02 09:38:49;;;;;;;5.15;0.95;;;9.80;77.20;;;;;;5032740;28;20029;-84
2021/04/02 09:41:22;;;;;;;4.57;1.10;;;9.80;77.30;;;;;;5032380;28;20057;-84
2021/04/02 09:43:53;;;;;;;3.45;0.93;;;9.80;77.20;;;;;;5031450;28;20503;-84
2021/04/02 09:46:31;;;;;;;3.50;1.40;;;9.70;77.20;;;;;;5031294;28;20091;-84
2021/04/02 09:49:07;;;;;;;6.15;1.50;;;9.60;77.00;;;;;;5032460;28;20033;-84
2021/04/02 09:51:35;;;;;;;4.32;1.23;;;9.60;77.30;;;;;;5032725;28;20021;-84
2021/04/02 09:54:01;;;;;;;4.85;0.98;;;9.60;76.10;;;;;;5032805;28;20492;-84
2021/04/02 09:56:27;;;;;;;7.03;1.63;;;9.60;76.10;;;;;;5031123;28;20057;-84
2021/04/02 09:58:53;;;;;;;6.28;1.42;;;9.60;76.00;;;;;;5031255;28;20026;-85
2021/04/02 10:01:19;;;;;;;2.47;0.90;;;9.70;75.80;;;;;;5032487;28;20025;-84
2021/04/02 10:03:46;;;;;;;4.63;0.90;;;10.00;76.10;;;;;;5031977;28;20072;-84
2021/04/02 10:06:11;;;;;;;6.72;1.02;;;10.60;75.60;;;;;;5032454;28;20026;-84
2021/04/02 10:08:37;;;;;;;5.55;1.42;;;10.80;74.30;;;;;;5031198;28;20071;-84
2021/04/02 10:11:02;;;;;;;6.30;1.33;;;10.70;72.60;;;;;;5031268;28;20120;-85
2021/04/02 10:13:28;;;;;;;5.43;1.20;;;10.70;72.20;;;;;;5032395;28;20033;-85
2021/04/02 10:15:54;;;;;;;5.65;1.08;;;10.50;72.50;;;;;;5021835;28;20059;-84
2021/04/02 10:18:20;;;;;;;5.03;1.30;;;10.40;72.40;;;;;;5011059;28;20377;-84
2021/04/02 10:20:46;;;;;;;4.57;1.00;;;10.30;72.50;;;;;;5011347;28;20501;-84
2021/04/02 10:23:11;;;;;;;8.75;1.48;;;10.30;73.00;;;;;;5011332;28;20108;-85
2021/04/02 10:25:37;;;;;;;6.80;1.50;;;10.30;72.20;;;;;;5012647;28;20116;-85
2021/04/02 10:28:03;;;;;;;5.90;1.13;;;10.30;72.90;;;;;;5016076;28;20060;-84
2021/04/02 10:30:28;;;;;;;3.83;0.82;;;10.40;72.50;;;;;;5014737;28;20595;-84
2021/04/02 10:32:54;;;;;;;5.50;1.10;;;10.40;72.40;;;;;;5015957;28;20030;-84
2021/04/02 10:35:20;;;;;;;4.18;1.23;;;10.40;72.10;;;;;;5014504;28;20088;-84
2021/04/02 10:37:45;;;;;;;5.85;1.63;;;10.60;72.00;;;;;;5014485;28;20022;-83
2021/04/02 10:40:12;;;;;;;6.38;1.20;;;10.80;71.80;;;;;;5014419;28;20049;-83
2021/04/02 10:42:38;;;;;;;9.15;1.50;;;10.90;71.30;;;;;;5014791;28;20050;-84
2021/04/02 10:45:05;;;;;;;9.75;1.75;;;10.90;70.30;;;;;;5014434;28;20369;-84
2021/04/02 10:47:30;;;;;;;4.30;1.13;;;10.90;70.00;;;;;;5015615;28;20390;-84
2021/04/02 10:49:56;;;;;;;7.65;1.50;;;10.90;69.40;;;;;;5014299;28;20556;-84
2021/04/02 10:52:21;;;;;;;5.38;1.40;;;10.80;69.20;;;;;;5014320;28;20444;-84
2021/04/02 10:54:47;;;;;;;7.32;1.60;;;10.60;69.60;;;;;;5015446;28;20389;-84
2021/04/02 10:57:14;;;;;;;5.40;1.45;;;10.60;69.70;;;;;;5015570;28;20026;-83
2021/04/02 10:59:40;;;;;;;3.90;1.65;;;10.50;69.40;;;;;;5014297;28;20029;-84
2021/04/02 11:02:05;;;;;;;4.93;1.48;;;10.50;69.80;;;;;;5014088;28;20390;-84
2021/04/02 11:04:31;;;;;;;5.50;1.83;;;10.50;70.00;;;;;;5015306;28;20026;-84
2021/04/02 11:06:57;;;;;;;3.60;1.92;;;10.50;69.90;;;;;;5015176;28;20052;-84
2021/04/02 11:09:22;;;;;;;6.68;1.20;;;10.70;69.80;;;;;;5014055;28;20393;-84
2021/04/02 11:11:48;;;;;;;5.10;1.45;;;10.80;69.60;;;;;;5013953;28;20512;-84
2021/04/02 11:14:13;;;;;;;5.50;1.38;;;10.90;68.80;;;;;;5013916;28;20489;-84
2021/04/02 11:16:39;;;;;;;5.13;1.42;;;11.10;67.10;;;;;;5030238;28;20493;-84
2021/04/02 11:19:05;;;;;;;4.10;1.30;;;11.20;66.50;;;;;;5033527;28;20072;-84
2021/04/02 11:21:30;;;;;;;5.25;1.48;;;11.60;66.20;;;;;;5033485;28;20022;-84
2021/04/02 11:23:56;;;;;;;8.48;1.60;;;11.80;65.20;;;;;;5034860;28;20576;-84
2021/04/02 11:26:23;;;;;;;5.05;1.52;;;11.70;64.70;;;;;;5034605;28;20025;-84
2021/04/02 11:28:48;;;;;;;5.78;1.50;;;11.60;64.50;;;;;;5033476;28;20025;-84
2021/04/02 11:31:14;;;;;;;5.38;1.30;;;11.50;65.20;;;;;;5033396;28;20028;-84
2021/04/02 11:33:39;;;;;;;4.05;1.17;;;11.40;65.50;;;;;;5033257;28;20362;-84
2021/04/02 11:36:05;;;;;;;4.90;1.58;;;11.30;65.50;;;;;;5034339;28;20083;-83
2021/04/02 11:38:31;;;;;;;7.05;1.58;;;11.30;66.10;;;;;;5034477;28;20036;-86
2021/04/02 11:40:57;;;;;;;3.80;1.02;;;11.50;65.70;;;;;;5032861;28;20077;-86
2021/04/02 11:43:23;;;;;;;4.32;1.13;;;11.80;64.50;;;;;;5034487;28;20100;-83
2021/04/02 11:45:49;;;;;;;5.60;1.30;;;11.90;63.40;;;;;;5033075;28;20552;-83
2021/04/02 11:48:14;;;;;;;5.50;1.58;;;12.00;63.10;;;;;;5032916;28;20025;-82
2021/04/02 11:50:40;;;;;;;7.35;1.23;;;12.00;62.50;;;;;;5032900;28;20116;-83
2021/04/02 11:53:05;;;;;;;5.35;1.10;;;12.10;62.30;;;;;;5029964;28;20030;-83
2021/04/02 11:55:31;;;;;;;5.38;1.23;;;12.30;63.00;;;;;;5033195;28;20060;-84
2021/04/02 11:57:57;;;;;;;8.60;1.90;;;12.60;62.10;;;;;;5032546;28;20025;-85
2021/04/02 12:00:23;;;;;;;5.38;1.15;;;12.60;61.70;;;;;;5032944;28;20029;-87
2021/04/02 12:02:48;;;;;;;6.30;1.20;;;12.50;61.90;;;;;;5032956;28;20028;-84
2021/04/02 12:05:14;;;;;;;5.50;1.10;;;12.40;61.50;;;;;;5032889;28;20017;-87
2021/04/02 12:07:40;;;;;;;5.40;1.10;;;12.10;61.80;;;;;;5032746;28;20036;-81
2021/04/02 12:10:06;;;;;;;10.00;2.40;;;11.90;61.80;;;;;;5033972;28;20037;-82
2021/04/02 12:12:32;;;;;;;8.63;1.40;;;11.90;62.00;;;;;;5032606;28;20026;-83
2021/04/02 12:14:58;;;;;;;4.50;1.02;;;11.90;61.80;;;;;;5031089;28;20029;-89
2021/04/02 12:17:24;;;;;;;3.97;0.80;;;12.00;61.70;;;;;;5012852;28;20018;-83
2021/04/02 12:19:50;;;;;;;4.65;0.98;;;12.20;61.50;;;;;;5012797;28;20048;-84
2021/04/02 12:22:15;;;;;;;4.05;1.45;;;12.40;60.90;;;;;;5012523;28;20517;-84
2021/04/02 12:24:41;;;;;;;6.60;1.02;;;12.40;60.20;;;;;;5013993;28;20029;-88
2021/04/02 12:27:07;;;;;;;6.60;1.70;;;12.30;60.40;;;;;;5021483;28;20027;-88
2021/04/02 12:29:33;;;;;;;4.35;1.17;;;12.30;60.60;;;;;;5033157;28;20055;-84
2021/04/02 12:31:59;;;;;;;3.97;0.90;;;12.20;61.00;;;;;;5031864;28;20416;-85
2021/04/02 12:34:24;;;;;;;8.77;1.95;;;12.10;61.10;;;;;;5032020;28;20028;-83
2021/04/02 12:36:50;;;;;;;9.13;1.35;;;12.10;61.60;;;;;;5031024;28;20075;-84
2021/04/02 12:39:15;;;;;;;3.92;1.10;;;12.10;61.90;;;;;;5044475;28;20018;-85
2021/04/02 12:41:41;;;;;;;5.30;1.20;;;12.00;62.10;;;;;;5023935;28;20042;-84
2021/04/02 12:44:07;;;;;;;4.53;1.27;;;12.20;62.00;;;;;;5044626;28;20033;-84
2021/04/02 12:46:32;;;;;;;6.63;1.40;;;12.30;61.30;;;;;;5042237;28;20030;-83
2021/04/02 12:48:58;;;;;;;4.97;1.15;;;12.30;61.40;;;;;;5044603;28;20037;-85
2021/04/02 12:51:23;;;;;;;8.73;1.58;;;12.40;61.00;;;;;;5029931;28;20541;-85
2021/04/02 12:53:49;;;;;;;4.75;1.17;;;12.30;60.80;;;;;;5032203;28;20048;-84
2021/04/02 12:56:15;;;;;;;5.68;1.25;;;12.20;61.10;;;;;;5027778;28;20486;-85
2021/04/02 12:58:40;;;;;;;5.13;1.38;;;12.00;61.50;;;;;;5047048;28;20052;-84